HDAM/JIB METAR and TAF weather

Enter ICAO airport designator
Station Type Date Time Source
HDAM METAR 2021/09/25 04:00 UTC NOAA

HDAM 250400Z 00000KT 9999 FEW020 32/23 Q1008


Station Type Date Time Source
HDAM Decoded METAR 2021/09/25 04:00 UTC NOAA

Djibouti \ Ambouli, Djibouti (HDAM) 11-33N 043-10E
Sep 25, 2021 - 12:00 AM EDT / 2021.09.25 0400 UTC
Wind: Calm:0
Visibility: greater than 7 mile(s):0
Sky conditions: mostly clear
Temperature: 89 F (32 C)
Heat index: 96.8 F (36.0 C):1
Dew Point: 73 F (23 C)
Relative Humidity: 59%
Pressure (altimeter): 29.77 in. Hg (1008 hPa)
ob: HDAM 250400Z 00000KT 9999 FEW020 32/23 Q1008
cycle: 4

Station Type Date Time Source
HDAM TAF 2021/09/25 12:42 UTC NOAA

TAF TAF HDAM 251100Z 2512/2612 34010KT 9999 FEW023 FEW266
BECMG 2515/2521 VRB03KT CAVOK
BECMG 2600/2606 00000KT

Example: see airport list